Hauptseite
METAR-TAF:

METAR-TAF

Flughäfen :

Flughafen Mauritius

Mauritius, Mauritius

Breite: 20-26S, Länge: 057-40E, Höhe: 55 m

Beobachtung

Neuester Wetterbericht von vor 38 Minuten, um 23:00 UTC
Wind 10 kt aus Ost
Temperatur 26°C
Luftfeuchtigkeit 84%
Luftdruck 1015 hPa
Sichtweite 10 km oder mehr
Aufgelockert bewölkt in der Höhe von 1700 ft

METAR: FIMP 142300Z 08010KT 9999 SCT017 26/23 Q1015

Zeit: 03:38 (23:38 UTC)

Prognose

Neuester Wetterbericht von vor 6 Stunden und 13 Minuten, um 17:25 UTC
Gültige Prognose vom 14 um 18 UTC bis 16 um 00 UTC
Wind 5 kt aus Ost
Sichtweite 10 km oder mehr
Aufgelockert bewölkt in der Höhe von 1600 ft
Wahrscheinlichkeit 30% :
Zeitweise
vom 15 um 00 UTC bis 15 um 04 UTC
Sichtweite: 7000 m
Leicht bewölkt in der Höhe von 1000 ft
Durchbrochene Bewölkung in der Höhe von 1500 ft
Regenschauer

TAF: FIMP 141725Z 1418/1600 08005KT 9999 SCT016 PROB30 TEMPO 1500/1504 7000 -SHRA FEW010 BKN015

Wetterbeobachtungen und Prognosen von mehr als 4000 Flughäfen (METAR und TAF Bericht).

Die verfügbaren Stationen werden durch gelbe und rote Markierungen auf der Karte dargestellt.

Führen Sie die Maus auf sie, um den Namen der Station zu sehen.

Darauf klicken, um die Beobachtung von Wetterbeobachtungen und Prognosen zu sehen.

Um die Karte zu ändern : klicken Sie auf den grünen Tasten mit einem schwarzen Kreuz Zum Vergrößern, auf den grünen Button mit einem Gedankenstrich zu verkleinern, oder auf die grünen Pfeile für benachbarte Karten.


METAR-TAF: